Time;durP1;ratioP1;P1;durP2;ratioP2;P2;SDS_P1;SDS_P2;PMS_P1;PMS_P2;Temp;Humidity;BMP_temperature;BMP_pressure;BME280_temperature;BME280_humidity;BME280_pressure;Samples;Min_cycle;Max_cycle;Signal;HPM_P1;HPM_P2
2021/12/21 04:02:43;;;;;;;4.23;2.47;;;1.50;74.70;;;;;;5152108;23;20493;-71
2021/12/21 04:05:10;;;;;;;4.93;2.53;;;1.50;74.40;;;;;;4996458;28;20450;-70
2021/12/21 04:07:36;;;;;;;4.67;3.00;;;1.50;74.50;;;;;;4996087;28;20970;-71
2021/12/21 04:10:04;;;;;;;3.63;2.53;;;1.50;74.70;;;;;;4996286;28;20489;-71
2021/12/21 04:12:31;;;;;;;4.70;2.83;;;1.50;74.40;;;;;;4996282;28;20465;-70
2021/12/21 04:14:58;;;;;;;4.70;2.53;;;1.50;74.60;;;;;;4996273;28;20457;-70
2021/12/21 04:17:25;;;;;;;4.13;2.57;;;1.50;74.70;;;;;;4996948;28;20449;-70
2021/12/21 04:19:53;;;;;;;5.17;2.83;;;1.50;74.30;;;;;;5001792;28;20920;-70
2021/12/21 04:22:21;;;;;;;4.80;2.67;;;1.40;74.30;;;;;;5003853;28;20972;-68
2021/12/21 04:24:48;;;;;;;4.20;2.83;;;1.40;74.10;;;;;;4996652;28;20449;-70
2021/12/21 04:27:15;;;;;;;3.33;2.13;;;1.40;74.20;;;;;;4996318;28;20791;-70
2021/12/21 04:29:41;;;;;;;6.90;2.97;;;1.40;74.20;;;;;;4996471;28;20496;-70
2021/12/21 04:32:09;;;;;;;3.90;2.50;;;1.40;74.40;;;;;;4996359;28;20469;-70
2021/12/21 04:34:36;;;;;;;4.23;2.90;;;1.40;74.20;;;;;;4996016;28;20964;-70
2021/12/21 04:37:05;;;;;;;5.93;2.27;;;1.40;73.90;;;;;;4995984;28;20445;-71
2021/12/21 04:39:37;;;;;;;3.30;2.17;;;1.40;74.20;;;;;;4995873;28;20453;-71
2021/12/21 04:42:04;;;;;;;5.60;2.73;;;1.40;74.30;;;;;;4995607;28;21047;-70
2021/12/21 04:44:31;;;;;;;3.40;2.20;;;1.30;74.60;;;;;;4995711;28;20456;-71
2021/12/21 04:46:58;;;;;;;3.90;2.43;;;1.30;74.50;;;;;;4995479;28;20476;-71
2021/12/21 04:49:25;;;;;;;4.00;2.07;;;1.30;74.50;;;;;;4995423;28;20499;-69
2021/12/21 04:51:52;;;;;;;4.10;2.63;;;1.40;74.20;;;;;;4995662;28;20496;-69
2021/12/21 04:54:20;;;;;;;3.90;2.20;;;1.40;74.50;;;;;;4995363;28;20960;-67
2021/12/21 04:56:47;;;;;;;5.10;2.57;;;1.40;74.40;;;;;;4995486;28;20456;-68
2021/12/21 04:59:14;;;;;;;3.93;2.20;;;1.40;74.30;;;;;;4995306;28;20448;-69
2021/12/21 05:01:41;;;;;;;5.60;2.10;;;1.40;74.10;;;;;;4995148;28;20477;-69
2021/12/21 05:04:07;;;;;;;3.27;2.20;;;1.40;74.20;;;;;;4995040;28;20460;-68
2021/12/21 05:06:34;;;;;;;3.60;2.70;;;1.40;74.20;;;;;;4994872;28;20948;-68
2021/12/21 05:09:10;;;;;;;3.60;2.50;;;1.40;73.80;;;;;;4995177;28;20456;-68
2021/12/21 05:11:40;;;;;;;6.43;2.77;;;1.30;73.90;;;;;;4995109;28;20489;-67
2021/12/21 05:14:08;;;;;;;3.77;2.50;;;1.30;73.90;;;;;;4996158;28;20452;-67
2021/12/21 05:16:36;;;;;;;3.87;2.57;;;1.30;73.70;;;;;;4995329;28;20536;-67
2021/12/21 05:19:02;;;;;;;3.80;2.67;;;1.30;73.70;;;;;;4994785;28;20983;-68
2021/12/21 05:21:29;;;;;;;5.30;2.67;;;1.30;73.90;;;;;;4994866;28;21062;-68
2021/12/21 05:23:56;;;;;;;6.43;2.27;;;1.30;74.00;;;;;;4995044;28;20457;-67
2021/12/21 05:26:23;;;;;;;6.60;2.40;;;1.20;73.90;;;;;;4994875;28;20503;-68
2021/12/21 05:28:51;;;;;;;3.43;2.43;;;1.20;73.80;;;;;;4995741;28;20457;-68
2021/12/21 05:31:18;;;;;;;3.67;2.70;;;1.20;73.80;;;;;;4994806;28;20489;-70
2021/12/21 05:33:45;;;;;;;5.70;2.57;;;1.20;74.00;;;;;;4996130;28;20476;-70
2021/12/21 05:36:12;;;;;;;5.13;3.50;;;1.20;73.90;;;;;;4996178;28;20445;-70
2021/12/21 05:38:39;;;;;;;6.23;3.03;;;1.20;74.00;;;;;;4995776;28;20453;-70
2021/12/21 05:41:11;;;;;;;5.23;2.50;;;1.20;73.90;;;;;;4995705;28;20469;-70
2021/12/21 05:43:38;;;;;;;4.70;2.67;;;1.20;74.00;;;;;;4995241;28;20445;-70
2021/12/21 05:46:06;;;;;;;4.13;2.43;;;1.20;74.20;;;;;;4995252;28;20448;-70
2021/12/21 05:48:33;;;;;;;5.97;2.53;;;1.10;74.10;;;;;;4995140;28;20453;-69
2021/12/21 05:50:59;;;;;;;3.63;2.60;;;1.10;74.10;;;;;;4994712;28;20484;-70
2021/12/21 05:53:26;;;;;;;4.43;2.33;;;1.10;74.00;;;;;;4995011;28;20453;-70
2021/12/21 05:55:53;;;;;;;4.73;3.17;;;1.10;74.00;;;;;;4994745;28;20500;-70
2021/12/21 05:58:19;;;;;;;4.20;2.70;;;1.20;73.70;;;;;;4994709;28;20495;-70
2021/12/21 06:00:46;;;;;;;3.90;2.53;;;1.20;73.70;;;;;;4994531;28;20468;-70
2021/12/21 06:03:14;;;;;;;5.73;2.70;;;1.10;74.10;;;;;;4994608;28;20851;-70
2021/12/21 06:05:42;;;;;;;6.30;2.60;;;1.10;73.90;;;;;;4994735;28;20449;-70
2021/12/21 06:08:09;;;;;;;4.17;2.43;;;1.10;74.10;;;;;;4994639;28;20459;-70
2021/12/21 06:10:40;;;;;;;3.30;2.40;;;1.10;74.20;;;;;;4994442;28;20488;-70
2021/12/21 06:16:22;;;;;;;4.30;2.87;;;1.10;74.40;;;;;;4939330;28;20832;-70
2021/12/21 06:27:04;;;;;;;3.43;2.47;;;1.00;74.30;;;;;;4994424;28;20409;-70
2021/12/21 06:29:32;;;;;;;5.33;3.00;;;1.10;74.30;;;;;;4994220;28;20504;-71
2021/12/21 06:31:59;;;;;;;3.20;2.20;;;1.10;74.50;;;;;;4993949;28;20485;-70
2021/12/21 06:34:27;;;;;;;4.27;2.90;;;1.10;74.40;;;;;;4994243;28;20453;-71
2021/12/21 06:36:54;;;;;;;3.57;2.53;;;1.10;74.20;;;;;;4994229;28;20460;-71
2021/12/21 06:39:21;;;;;;;4.30;2.70;;;1.10;74.30;;;;;;4995556;28;20463;-70
2021/12/21 06:41:48;;;;;;;4.67;2.70;;;1.00;74.20;;;;;;4997707;28;20461;-71
2021/12/21 06:44:16;;;;;;;5.77;2.47;;;1.00;74.10;;;;;;4997871;28;20944;-69
2021/12/21 06:46:52;;;;;;;3.60;2.40;;;1.00;74.20;;;;;;4998428;28;20452;-70
2021/12/21 06:52:09;;;;;;;4.70;2.90;;;1.00;74.40;;;;;;4997742;28;20488;-70
2021/12/21 06:54:37;;;;;;;4.23;3.03;;;0.90;74.50;;;;;;4997883;28;20532;-70
2021/12/21 06:57:04;;;;;;;3.20;2.10;;;1.00;74.40;;;;;;4997694;28;20808;-71
2021/12/21 06:59:31;;;;;;;4.73;2.50;;;1.00;74.60;;;;;;4997268;28;20453;-71
2021/12/21 07:01:58;;;;;;;4.00;2.73;;;1.00;74.60;;;;;;4997395;28;20489;-71
2021/12/21 07:04:26;;;;;;;5.33;2.00;;;1.00;74.30;;;;;;4997689;28;20449;-71
2021/12/21 07:06:54;;;;;;;3.40;2.33;;;1.00;74.30;;;;;;4997480;28;20572;-71
2021/12/21 07:09:31;;;;;;;4.60;2.63;;;1.00;74.10;;;;;;4997480;28;20540;-71
2021/12/21 07:12:17;;;;;;;3.90;2.57;;;1.00;74.30;;;;;;4997005;28;20581;-71
2021/12/21 07:20:28;;;;;;;3.77;2.77;;;1.10;74.40;;;;;;5091900;27;21084;-69
2021/12/21 07:22:55;;;;;;;3.80;2.50;;;1.10;74.40;;;;;;5091140;28;20502;-70
2021/12/21 07:25:25;;;;;;;5.47;2.90;;;1.10;74.20;;;;;;5091524;28;20436;-70
2021/12/21 07:27:52;;;;;;;5.13;2.50;;;1.20;74.00;;;;;;5091302;28;20502;-70
2021/12/21 07:30:19;;;;;;;6.47;2.70;;;1.20;74.00;;;;;;5091159;28;20444;-69
2021/12/21 07:35:13;;;;;;;4.40;3.27;;;1.20;73.70;;;;;;5091632;22;20870;-70
2021/12/21 07:37:42;;;;;;;3.43;2.50;;;1.20;73.90;;;;;;5070401;28;20450;-71
2021/12/21 07:40:10;;;;;;;4.93;3.33;;;1.20;73.70;;;;;;5070303;28;20523;-71
2021/12/21 07:42:37;;;;;;;3.80;2.70;;;1.30;73.70;;;;;;5070308;28;20453;-71
2021/12/21 07:45:04;;;;;;;4.37;3.27;;;1.30;73.70;;;;;;5070198;28;20465;-70
2021/12/21 07:47:31;;;;;;;3.90;3.20;;;1.40;73.90;;;;;;5070215;28;20452;-70
2021/12/21 07:49:58;;;;;;;3.87;3.03;;;1.40;73.80;;;;;;5070216;28;20442;-71
2021/12/21 07:52:25;;;;;;;5.17;2.97;;;1.50;73.70;;;;;;5070164;28;20491;-70
2021/12/21 07:54:53;;;;;;;3.80;2.67;;;1.60;73.60;;;;;;5070018;28;20505;-71
2021/12/21 07:57:20;;;;;;;4.70;3.20;;;1.80;73.40;;;;;;5070022;28;20498;-71
2021/12/21 07:59:47;;;;;;;4.37;3.17;;;1.90;72.70;;;;;;5069918;28;20523;-71
2021/12/21 08:02:14;;;;;;;4.37;2.57;;;2.10;72.20;;;;;;5069608;28;20817;-70
2021/12/21 08:04:43;;;;;;;5.10;3.10;;;2.20;71.90;;;;;;5069782;28;20475;-70
2021/12/21 08:07:13;;;;;;;4.40;3.43;;;2.30;71.60;;;;;;5069863;28;20442;-71
2021/12/21 08:09:45;;;;;;;4.70;3.57;;;2.40;71.20;;;;;;5069844;28;20429;-71
2021/12/21 08:12:16;;;;;;;5.43;3.43;;;2.50;71.10;;;;;;5069815;28;20442;-71
2021/12/21 08:14:43;;;;;;;3.97;3.20;;;2.50;71.20;;;;;;5069640;28;20479;-71
2021/12/21 08:17:09;;;;;;;3.07;2.60;;;2.60;70.80;;;;;;5069598;28;20503;-71
2021/12/21 08:19:36;;;;;;;6.00;3.00;;;2.60;71.10;;;;;;5069154;28;20996;-70
2021/12/21 08:22:03;;;;;;;4.30;3.23;;;2.70;71.10;;;;;;5069394;28;20446;-71
2021/12/21 08:24:30;;;;;;;4.20;2.67;;;2.70;71.10;;;;;;5069361;28;20462;-71
2021/12/21 08:26:58;;;;;;;5.27;3.87;;;2.80;71.20;;;;;;5069404;28;20495;-71
2021/12/21 08:29:27;;;;;;;4.77;2.90;;;2.90;71.20;;;;;;5069005;28;20442;-71
2021/12/21 08:31:54;;;;;;;7.80;3.90;;;3.00;71.60;;;;;;5055702;28;20500;-71
2021/12/21 08:34:21;;;;;;;4.50;2.70;;;3.00;71.40;;;;;;5055726;28;20478;-71
2021/12/21 08:36:48;;;;;;;4.97;3.23;;;3.10;71.10;;;;;;5056054;28;20829;-71
2021/12/21 08:39:16;;;;;;;6.00;3.27;;;3.20;70.90;;;;;;5055929;28;20532;-71
2021/12/21 08:41:44;;;;;;;5.87;4.13;;;3.10;70.30;;;;;;5055911;28;20454;-71
2021/12/21 08:44:11;;;;;;;4.83;4.00;;;3.10;70.70;;;;;;5055822;28;20462;-71
2021/12/21 08:46:40;;;;;;;3.90;2.83;;;3.20;70.80;;;;;;5055432;28;20993;-71
2021/12/21 08:49:07;;;;;;;4.67;2.87;;;3.30;70.70;;;;;;5055682;28;20438;-71
2021/12/21 08:51:34;;;;;;;4.50;2.33;;;3.50;70.20;;;;;;5055314;28;20986;-71
2021/12/21 08:54:01;;;;;;;4.40;2.67;;;3.60;69.70;;;;;;5055457;28;20540;-71
2021/12/21 08:56:27;;;;;;;4.80;3.23;;;3.80;69.10;;;;;;5055452;28;20450;-71
2021/12/21 08:58:54;;;;;;;5.10;3.10;;;4.00;68.80;;;;;;5055325;28;20508;-72
2021/12/21 09:01:20;;;;;;;3.57;2.47;;;3.90;68.80;;;;;;5055359;28;20446;-71
2021/12/21 09:03:49;;;;;;;3.67;2.23;;;3.50;69.00;;;;;;5055644;28;20555;-70
2021/12/21 09:06:16;;;;;;;3.97;2.23;;;3.00;71.10;;;;;;5056016;28;20449;-70
2021/12/21 09:08:43;;;;;;;6.60;2.90;;;3.00;71.60;;;;;;5055159;28;20454;-70
2021/12/21 09:11:10;;;;;;;3.87;2.80;;;3.10;71.60;;;;;;5055054;28;20447;-72
2021/12/21 09:13:36;;;;;;;4.90;3.27;;;2.90;71.00;;;;;;5055424;28;20466;-70
2021/12/21 09:16:03;;;;;;;5.83;2.50;;;2.70;72.00;;;;;;5054718;28;20949;-69
2021/12/21 09:18:30;;;;;;;3.33;2.40;;;2.60;73.00;;;;;;5055030;28;20469;-70
2021/12/21 09:20:58;;;;;;;3.50;2.30;;;2.70;73.40;;;;;;5055017;28;20540;-69
2021/12/21 09:23:27;;;;;;;4.40;2.60;;;2.50;72.90;;;;;;5054896;28;20473;-69
2021/12/21 09:25:54;;;;;;;4.57;3.20;;;2.50;73.40;;;;;;5054550;28;20898;-70
2021/12/21 09:28:20;;;;;;;5.33;2.87;;;2.50;73.20;;;;;;5054848;28;20496;-69
2021/12/21 09:30:47;;;;;;;6.73;3.10;;;2.50;73.70;;;;;;5054734;28;20469;-69
2021/12/21 09:33:14;;;;;;;6.13;2.80;;;2.70;73.70;;;;;;5054189;28;21012;-70
2021/12/21 09:35:41;;;;;;;3.70;2.63;;;2.70;73.40;;;;;;5054775;28;20470;-70
2021/12/21 09:38:09;;;;;;;4.63;2.40;;;2.50;73.10;;;;;;5054673;28;20856;-70
2021/12/21 09:40:39;;;;;;;5.03;4.20;;;2.60;73.50;;;;;;5054534;28;20482;-69
2021/12/21 09:43:07;;;;;;;3.17;2.37;;;2.30;73.50;;;;;;5053507;28;20446;-71
2021/12/21 09:45:34;;;;;;;3.80;2.60;;;2.60;74.20;;;;;;5054452;28;20873;-69
2021/12/21 09:48:01;;;;;;;3.50;2.47;;;2.50;73.50;;;;;;5054471;28;20447;-70
2021/12/21 09:50:28;;;;;;;3.27;2.20;;;2.60;74.20;;;;;;5054476;28;20453;-70
2021/12/21 09:52:55;;;;;;;6.60;2.97;;;2.60;74.50;;;;;;5054360;28;20442;-71
2021/12/21 09:55:24;;;;;;;3.70;2.40;;;2.80;74.10;;;;;;5054280;28;20446;-70
2021/12/21 09:57:53;;;;;;;3.77;2.53;;;2.80;73.80;;;;;;5054325;28;20500;-70
2021/12/21 10:00:22;;;;;;;5.03;3.13;;;2.80;74.30;;;;;;5053947;28;20475;-70
2021/12/21 10:02:49;;;;;;;3.80;2.40;;;2.80;73.40;;;;;;5054458;28;20453;-70
2021/12/21 10:05:19;;;;;;;4.20;2.80;;;2.90;73.40;;;;;;5053842;28;20798;-70
2021/12/21 10:07:56;;;;;;;3.20;2.27;;;2.90;73.40;;;;;;5054184;28;20481;-69
2021/12/21 10:10:24;;;;;;;5.07;3.13;;;2.90;72.90;;;;;;5054085;28;20481;-70
2021/12/21 10:12:51;;;;;;;3.40;2.27;;;2.90;73.20;;;;;;5053803;28;20446;-71
2021/12/21 10:15:20;;;;;;;4.47;2.40;;;3.20;73.40;;;;;;5053934;28;20473;-70
2021/12/21 10:17:52;;;;;;;3.00;1.87;;;3.40;72.40;;;;;;5054313;28;20490;-69
2021/12/21 10:20:31;;;;;;;4.50;2.80;;;3.50;72.00;;;;;;5053637;28;20532;-70
2021/12/21 10:22:58;;;;;;;3.90;3.00;;;3.70;71.20;;;;;;5053766;28;20488;-70
2021/12/21 10:25:27;;;;;;;4.27;2.60;;;3.50;70.10;;;;;;5053750;28;20446;-69
2021/12/21 10:27:54;;;;;;;3.60;2.70;;;3.40;70.40;;;;;;5053932;28;20447;-69
2021/12/21 10:30:21;;;;;;;3.80;2.67;;;3.30;71.40;;;;;;5053685;28;20442;-70
2021/12/21 10:32:53;;;;;;;4.13;2.77;;;3.20;71.40;;;;;;5053697;28;20458;-70
2021/12/21 10:35:21;;;;;;;4.07;2.77;;;3.20;72.10;;;;;;5053519;28;20438;-69
2021/12/21 10:37:51;;;;;;;4.00;2.73;;;3.30;72.50;;;;;;5053390;28;20497;-70
2021/12/21 10:40:24;;;;;;;3.63;2.50;;;3.30;72.00;;;;;;5053169;28;20502;-70
2021/12/21 10:42:55;;;;;;;3.90;3.00;;;2.90;73.10;;;;;;5053389;28;20442;-71
2021/12/21 10:45:29;;;;;;;5.97;3.07;;;2.80;73.50;;;;;;5053385;28;20434;-69
2021/12/21 10:47:56;;;;;;;6.50;2.90;;;2.80;75.00;;;;;;5053228;28;20427;-70
2021/12/21 10:50:23;;;;;;;4.23;2.73;;;3.00;74.40;;;;;;5053370;28;20913;-70
2021/12/21 10:52:52;;;;;;;4.30;2.70;;;3.40;72.80;;;;;;5053075;28;20515;-71
2021/12/21 10:55:26;;;;;;;3.47;2.53;;;4.10;71.50;;;;;;5052882;28;20484;-69
2021/12/21 10:58:04;;;;;;;3.63;2.53;;;4.60;70.10;;;;;;5053318;28;20523;-71
2021/12/21 11:00:30;;;;;;;3.87;2.83;;;4.90;67.70;;;;;;5053133;28;20519;-69
2021/12/21 11:02:57;;;;;;;4.43;2.30;;;5.00;67.00;;;;;;5052890;28;20453;-71
2021/12/21 11:05:24;;;;;;;5.10;3.37;;;4.40;67.70;;;;;;5052982;28;20508;-70
2021/12/21 11:07:54;;;;;;;4.33;2.90;;;4.20;68.90;;;;;;5053040;28;20446;-70
2021/12/21 11:10:26;;;;;;;4.20;2.37;;;4.20;69.30;;;;;;5053050;28;20452;-70
2021/12/21 11:12:55;;;;;;;5.23;3.20;;;4.00;68.90;;;;;;5052827;28;20442;-71
2021/12/21 11:15:29;;;;;;;5.53;3.13;;;3.70;70.00;;;;;;5052611;28;21029;-69
2021/12/21 11:17:56;;;;;;;4.00;3.03;;;3.60;70.80;;;;;;5052948;28;20439;-70
2021/12/21 11:20:23;;;;;;;5.60;3.23;;;3.70;70.90;;;;;;5052856;28;20532;-70
2021/12/21 11:22:52;;;;;;;4.63;3.73;;;3.70;70.50;;;;;;5052817;28;20480;-71
2021/12/21 11:25:19;;;;;;;3.77;2.67;;;3.40;71.10;;;;;;5052757;28;20867;-70
2021/12/21 11:27:46;;;;;;;4.93;2.93;;;3.40;71.80;;;;;;5052758;28;20473;-69
2021/12/21 11:30:16;;;;;;;4.20;3.10;;;3.20;71.60;;;;;;5052744;28;20443;-70
2021/12/21 11:32:48;;;;;;;4.13;3.07;;;3.00;72.70;;;;;;5052793;28;20500;-70
2021/12/21 11:38:03;;;;;;;3.77;2.80;;;3.10;72.40;;;;;;5052987;28;20498;-70
2021/12/21 11:40:33;;;;;;;4.10;2.80;;;3.20;71.90;;;;;;5052361;28;20493;-71
2021/12/21 11:43:23;;;;;;;3.90;2.43;;;3.20;71.80;;;;;;5052664;28;20446;-71
2021/12/21 11:45:55;;;;;;;5.50;3.30;;;3.00;73.00;;;;;;5052857;28;20522;-70
2021/12/21 11:48:33;;;;;;;4.20;3.07;;;3.20;72.20;;;;;;5052698;28;20438;-70
2021/12/21 11:51:05;;;;;;;4.23;2.80;;;3.20;72.10;;;;;;5052691;28;20442;-70
2021/12/21 11:53:32;;;;;;;3.50;2.50;;;3.60;72.10;;;;;;5052681;28;20554;-70
2021/12/21 11:55:59;;;;;;;4.90;2.40;;;3.90;70.90;;;;;;5052588;28;20445;-71
2021/12/21 11:58:28;;;;;;;3.53;2.40;;;4.00;70.60;;;;;;5052280;28;21004;-70
2021/12/21 12:00:57;;;;;;;3.87;2.00;;;4.20;70.40;;;;;;5053047;28;20482;-70
2021/12/21 12:03:27;;;;;;;4.30;2.70;;;5.10;67.30;;;;;;5052479;28;20553;-70
2021/12/21 12:05:57;;;;;;;4.57;3.10;;;6.60;65.10;;;;;;5054701;28;20492;-71
2021/12/21 12:08:27;;;;;;;5.30;3.20;;;8.30;60.00;;;;;;5056800;28;20454;-71
2021/12/21 12:10:57;;;;;;;3.67;1.93;;;9.60;56.20;;;;;;5056687;28;20473;-71
2021/12/21 12:13:30;;;;;;;4.10;2.70;;;9.20;54.90;;;;;;5056351;28;20462;-70
2021/12/21 12:16:00;;;;;;;3.97;2.73;;;9.90;54.60;;;;;;5056286;28;20442;-71
2021/12/21 12:18:34;;;;;;;5.10;2.50;;;9.80;52.70;;;;;;5056175;28;20512;-70
2021/12/21 12:21:12;;;;;;;3.50;2.17;;;10.50;53.60;;;;;;5056094;28;20522;-71
2021/12/21 12:23:48;;;;;;;3.57;2.33;;;12.50;49.80;;;;;;5056309;28;20473;-71
2021/12/21 12:26:23;;;;;;;4.47;2.70;;;14.20;45.30;;;;;;5056121;28;20446;-72
2021/12/21 12:28:50;;;;;;;4.17;2.63;;;15.90;43.20;;;;;;5056324;28;20453;-71
2021/12/21 12:31:31;;;;;;;4.70;2.20;;;16.80;41.10;;;;;;5056240;28;20450;-71
2021/12/21 12:33:59;;;;;;;4.40;2.70;;;17.40;40.40;;;;;;5055671;28;20535;-71
2021/12/21 12:36:38;;;;;;;6.87;3.10;;;17.60;39.80;;;;;;5055992;28;20446;-71
2021/12/21 12:39:07;;;;;;;3.30;2.20;;;17.40;39.50;;;;;;5056270;28;20451;-71
2021/12/21 12:41:44;;;;;;;3.70;2.20;;;16.90;39.70;;;;;;5055695;28;20536;-71
2021/12/21 12:44:20;;;;;;;3.67;2.17;;;18.20;38.90;;;;;;5055901;28;20916;-71
2021/12/21 12:46:53;;;;;;;4.37;2.53;;;19.20;37.20;;;;;;5055926;28;20491;-70
2021/12/21 12:49:25;;;;;;;4.10;2.87;;;19.60;35.70;;;;;;5055920;28;20492;-70
2021/12/21 12:51:52;;;;;;;4.93;4.23;;;18.90;36.90;;;;;;5055857;28;20434;-71
2021/12/21 12:54:21;;;;;;;5.30;4.00;;;18.80;37.50;;;;;;5055344;28;20985;-71
2021/12/21 12:56:48;;;;;;;4.27;3.03;;;20.10;36.10;;;;;;5055671;28;20447;-71
2021/12/21 12:59:15;;;;;;;3.10;1.87;;;20.40;35.10;;;;;;5056219;28;20450;-71
2021/12/21 13:01:44;;;;;;;4.10;2.00;;;20.80;33.60;;;;;;5055490;28;20556;-72
2021/12/21 13:04:13;;;;;;;4.60;2.40;;;20.50;34.40;;;;;;5055516;28;20489;-71
2021/12/21 13:06:46;;;;;;;5.13;2.10;;;20.80;33.50;;;;;;5055224;28;20824;-71
2021/12/21 13:09:18;;;;;;;3.97;2.20;;;20.80;33.60;;;;;;5054993;28;20853;-70
2021/12/21 13:11:45;;;;;;;3.10;1.90;;;21.20;33.40;;;;;;5055543;28;20454;-70
2021/12/21 13:14:13;;;;;;;3.37;2.20;;;21.70;33.00;;;;;;5055334;28;20519;-70
2021/12/21 13:16:40;;;;;;;6.03;2.73;;;21.50;32.70;;;;;;5055177;28;20442;-71
2021/12/21 13:19:09;;;;;;;5.10;2.53;;;21.70;33.10;;;;;;5055350;28;20821;-70
2021/12/21 13:21:40;;;;;;;4.07;2.07;;;22.50;32.00;;;;;;5055324;28;20485;-70
2021/12/21 13:24:10;;;;;;;3.73;1.70;;;22.60;31.80;;;;;;5055230;28;20462;-71
2021/12/21 13:26:39;;;;;;;3.70;2.20;;;23.00;31.60;;;;;;5055051;28;20529;-70
2021/12/21 13:29:07;;;;;;;4.27;2.40;;;23.40;30.80;;;;;;5054998;28;20500;-70
2021/12/21 13:31:35;;;;;;;4.37;2.47;;;23.60;30.20;;;;;;5054969;28;20454;-72
2021/12/21 13:34:02;;;;;;;4.03;1.80;;;23.00;30.50;;;;;;5085731;22;20508;-71
2021/12/21 13:36:34;;;;;;;3.97;2.00;;;22.70;31.20;;;;;;5075740;28;20441;-70
2021/12/21 13:39:02;;;;;;;5.30;1.77;;;22.70;31.50;;;;;;5075374;28;20444;-69
2021/12/21 13:41:30;;;;;;;3.40;2.10;;;23.10;30.80;;;;;;5076005;28;20485;-71
2021/12/21 13:43:59;;;;;;;3.40;2.07;;;22.80;30.60;;;;;;5075688;28;20469;-71
2021/12/21 13:46:26;;;;;;;4.80;2.30;;;22.70;31.10;;;;;;5075284;28;20441;-71
2021/12/21 13:48:55;;;;;;;3.33;1.93;;;22.40;31.10;;;;;;5075035;28;20459;-71
2021/12/21 13:51:24;;;;;;;3.13;1.87;;;22.10;31.30;;;;;;5075911;28;20457;-71
2021/12/21 13:53:52;;;;;;;3.67;2.10;;;22.30;31.30;;;;;;5075297;28;20479;-72
2021/12/21 13:56:22;;;;;;;3.67;2.03;;;22.30;31.30;;;;;;5075337;28;20445;-71
2021/12/21 13:58:54;;;;;;;3.20;1.80;;;22.50;31.40;;;;;;5075007;28;20933;-71
2021/12/21 14:01:22;;;;;;;3.50;1.77;;;22.70;31.50;;;;;;5075548;28;20475;-72
2021/12/21 14:03:56;;;;;;;3.23;2.07;;;23.00;31.10;;;;;;5075384;28;20476;-71
2021/12/21 14:06:24;;;;;;;3.03;1.73;;;23.10;31.00;;;;;;5075046;28;20909;-70
2021/12/21 14:08:53;;;;;;;3.50;2.03;;;23.20;31.00;;;;;;5075181;28;20461;-71
2021/12/21 14:11:25;;;;;;;3.50;1.90;;;23.10;30.70;;;;;;5075318;28;20438;-71
2021/12/21 14:13:53;;;;;;;3.10;1.73;;;22.70;30.80;;;;;;5074923;28;20450;-70
2021/12/21 14:16:22;;;;;;;3.70;1.90;;;21.70;32.00;;;;;;5074320;28;20941;-71
2021/12/21 14:18:50;;;;;;;3.03;1.97;;;20.60;33.10;;;;;;5074293;28;20453;-71
2021/12/21 14:21:19;;;;;;;4.80;1.90;;;19.30;34.20;;;;;;5074461;28;20485;-68
2021/12/21 14:23:48;;;;;;;5.80;4.60;;;18.20;36.00;;;;;;5074143;28;21011;-70
2021/12/21 14:26:35;;;;;;;;;;;;;;;;;;;;;
2021/12/21 14:29:08;;;;;;;3.63;1.97;;;16.20;38.50;;;;;;5074429;28;20453;-70
2021/12/21 14:31:42;;;;;;;3.87;1.53;;;14.80;40.40;;;;;;5074299;28;20905;-70
2021/12/21 14:34:10;;;;;;;4.67;1.70;;;13.50;42.40;;;;;;5074119;28;20473;-70
2021/12/21 14:36:38;;;;;;;3.00;1.67;;;12.50;44.30;;;;;;5074007;28;20519;-69
2021/12/21 14:39:07;;;;;;;4.43;2.63;;;11.40;46.00;;;;;;5073878;28;20948;-70
2021/12/21 14:41:36;;;;;;;9.90;6.40;;;10.60;48.00;;;;;;5073919;28;20485;-69
2021/12/21 14:44:07;;;;;;;8.73;5.07;;;9.80;49.40;;;;;;5074454;28;20591;-70
2021/12/21 14:46:35;;;;;;;4.10;2.40;;;9.20;51.00;;;;;;5074077;28;20434;-69
2021/12/21 14:49:05;;;;;;;3.40;1.60;;;8.40;52.50;;;;;;5073729;28;20448;-68
2021/12/21 14:51:37;;;;;;;3.20;1.80;;;8.10;53.80;;;;;;5074102;28;20448;-70
2021/12/21 14:54:08;;;;;;;3.73;1.97;;;7.60;55.00;;;;;;5073674;28;20473;-70
2021/12/21 14:56:37;;;;;;;4.00;2.03;;;7.30;56.10;;;;;;5074149;28;20454;-69
2021/12/21 14:59:08;;;;;;;4.23;2.10;;;7.10;56.90;;;;;;5075050;28;20537;-70
2021/12/21 15:01:37;;;;;;;3.07;2.10;;;6.70;58.00;;;;;;5074248;28;20470;-70
2021/12/21 15:04:16;;;;;;;3.53;1.93;;;6.60;58.80;;;;;;5074732;28;20462;-70
2021/12/21 15:06:44;;;;;;;3.50;1.77;;;6.40;59.20;;;;;;5074548;28;20803;-70
2021/12/21 15:09:11;;;;;;;3.13;1.97;;;6.30;59.50;;;;;;5073945;28;20438;-70
2021/12/21 15:11:43;;;;;;;4.63;2.00;;;6.20;60.10;;;;;;5074551;28;20442;-70
2021/12/21 15:14:11;;;;;;;3.20;2.00;;;6.20;60.50;;;;;;5074433;28;20508;-71
2021/12/21 15:16:38;;;;;;;3.67;1.97;;;6.10;60.90;;;;;;5073754;28;20827;-69
2021/12/21 15:19:05;;;;;;;4.60;2.20;;;5.90;61.30;;;;;;5074358;28;20445;-70
2021/12/21 15:21:32;;;;;;;4.70;2.20;;;5.90;61.60;;;;;;5073534;28;20481;-69
2021/12/21 15:24:00;;;;;;;4.10;2.20;;;5.90;62.00;;;;;;5073299;28;20972;-70
2021/12/21 15:26:27;;;;;;;3.77;2.67;;;5.90;62.20;;;;;;5073575;28;20459;-68
2021/12/21 15:28:53;;;;;;;4.27;2.30;;;5.80;62.40;;;;;;5073677;28;20445;-70
2021/12/21 15:31:21;;;;;;;4.60;2.23;;;5.70;62.80;;;;;;5073604;28;20445;-70
2021/12/21 15:33:48;;;;;;;5.17;3.60;;;5.60;63.20;;;;;;5073374;28;20488;-70
2021/12/21 15:36:15;;;;;;;5.40;4.53;;;5.60;63.40;;;;;;5073700;28;20433;-70
2021/12/21 15:38:42;;;;;;;4.80;3.10;;;5.50;63.70;;;;;;5073223;28;20456;-70
2021/12/21 15:41:09;;;;;;;6.67;3.67;;;5.40;64.00;;;;;;5075520;28;20508;-70
2021/12/21 15:43:38;;;;;;;4.50;3.70;;;5.40;64.30;;;;;;5077357;28;20441;-69
2021/12/21 15:46:06;;;;;;;5.83;4.20;;;5.30;64.80;;;;;;5077843;28;20803;-70
2021/12/21 15:48:34;;;;;;;6.27;4.90;;;5.20;65.00;;;;;;5077347;28;20441;-69
2021/12/21 15:51:02;;;;;;;7.90;4.03;;;5.10;65.30;;;;;;5077249;28;20820;-70
2021/12/21 15:53:30;;;;;;;5.90;4.20;;;5.10;65.40;;;;;;5077087;28;20944;-69
2021/12/21 15:55:57;;;;;;;6.10;3.37;;;5.00;65.70;;;;;;5077910;28;20460;-70
2021/12/21 15:58:23;;;;;;;5.33;3.50;;;5.00;66.00;;;;;;5078582;28;20457;-70
2021/12/21 16:00:50;;;;;;;8.07;6.20;;;5.00;66.20;;;;;;5078548;28;20818;-70
2021/12/21 16:03:18;;;;;;;12.53;11.13;;;4.90;66.40;;;;;;5079043;28;20944;-69
2021/12/21 16:05:46;;;;;;;10.80;9.30;;;4.90;66.60;;;;;;5079189;28;20959;-70
2021/12/21 16:08:12;;;;;;;9.10;6.73;;;4.80;66.80;;;;;;5078556;28;20454;-69
2021/12/21 16:10:39;;;;;;;7.13;5.13;;;4.80;66.80;;;;;;5078488;28;20452;-69
2021/12/21 16:13:06;;;;;;;4.43;3.83;;;4.70;66.70;;;;;;5077768;28;20827;-70
2021/12/21 16:15:33;;;;;;;4.50;3.13;;;4.70;67.00;;;;;;5077296;28;20487;-69
2021/12/21 16:17:59;;;;;;;4.63;3.63;;;4.70;67.20;;;;;;5076833;28;20450;-70
2021/12/21 16:20:26;;;;;;;4.17;3.10;;;4.70;67.20;;;;;;5076998;28;20452;-68
2021/12/21 16:22:54;;;;;;;4.97;3.90;;;4.60;67.30;;;;;;5076356;28;20855;-70
2021/12/21 16:25:21;;;;;;;5.23;3.97;;;4.60;67.30;;;;;;5076615;28;20477;-70
2021/12/21 16:27:48;;;;;;;5.60;3.40;;;4.60;67.50;;;;;;5076972;28;20449;-70
2021/12/21 16:30:20;;;;;;;4.63;4.13;;;4.50;67.70;;;;;;5076694;28;21062;-69
2021/12/21 16:32:49;;;;;;;5.87;4.40;;;4.50;67.70;;;;;;5076602;28;20449;-69
2021/12/21 16:35:16;;;;;;;5.00;4.43;;;4.50;68.00;;;;;;5077515;28;20568;-70
2021/12/21 16:37:43;;;;;;;4.70;4.30;;;4.40;68.10;;;;;;5077772;28;20937;-70
2021/12/21 16:40:12;;;;;;;7.37;5.30;;;4.40;68.10;;;;;;5076813;28;20422;-70
2021/12/21 16:42:40;;;;;;;4.70;4.20;;;4.40;68.20;;;;;;5076978;28;20489;-69
2021/12/21 16:45:08;;;;;;;5.93;4.10;;;4.40;68.30;;;;;;5076361;28;20504;-70
2021/12/21 16:47:35;;;;;;;4.03;2.90;;;4.30;68.70;;;;;;5076372;28;20445;-69
2021/12/21 16:50:02;;;;;;;3.63;2.60;;;4.30;68.70;;;;;;5076203;28;20456;-68
2021/12/21 16:52:28;;;;;;;3.50;2.43;;;4.30;68.70;;;;;;5075889;28;20468;-69
2021/12/21 16:55:00;;;;;;;5.13;2.80;;;4.30;68.70;;;;;;5077286;28;20473;-69
2021/12/21 16:57:29;;;;;;;4.00;2.97;;;4.30;68.50;;;;;;5077971;28;20433;-69
2021/12/21 16:59:58;;;;;;;5.30;3.23;;;4.30;68.50;;;;;;5077123;28;20870;-70
2021/12/21 17:02:25;;;;;;;4.17;2.70;;;4.20;68.30;;;;;;5076365;28;20473;-69
2021/12/21 17:04:52;;;;;;;6.30;2.50;;;4.20;68.30;;;;;;5076590;28;20466;-70
2021/12/21 17:07:18;;;;;;;3.83;2.73;;;4.20;68.40;;;;;;5077641;28;20916;-68
2021/12/21 17:09:45;;;;;;;4.40;2.30;;;4.20;68.30;;;;;;5077407;28;20466;-70
2021/12/21 17:12:12;;;;;;;4.90;2.93;;;4.20;68.20;;;;;;5077935;28;20449;-70
2021/12/21 17:14:40;;;;;;;5.03;3.60;;;4.20;68.30;;;;;;5076598;28;20466;-70
2021/12/21 17:17:07;;;;;;;3.90;2.83;;;4.20;68.10;;;;;;5076727;28;20456;-70
2021/12/21 17:19:34;;;;;;;7.40;3.30;;;4.10;68.20;;;;;;5077324;28;20441;-70
2021/12/21 17:22:01;;;;;;;4.03;2.70;;;4.20;68.10;;;;;;5076721;28;20477;-71
2021/12/21 17:24:28;;;;;;;4.70;2.77;;;4.10;68.00;;;;;;5076360;28;20469;-70
2021/12/21 17:26:55;;;;;;;3.83;2.40;;;4.10;67.90;;;;;;5077014;28;20798;-69
2021/12/21 17:29:22;;;;;;;4.13;3.30;;;4.00;68.00;;;;;;5076938;28;20928;-68